sensor_id;sensor_type;location;lat;lon;timestamp;P1;durP1;ratioP1;P2;durP2;ratioP2
53801;SDS011;39709;53.334;6.534;2023-04-10T00:01:03;38.50;;;20.60;;
53801;SDS011;39709;53.334;6.534;2023-04-10T00:03:30;37.78;;;20.60;;
53801;SDS011;39709;53.334;6.534;2023-04-10T00:05:56;38.28;;;21.40;;
53801;SDS011;39709;53.334;6.534;2023-04-10T00:08:23;41.97;;;22.90;;
53801;SDS011;39709;53.334;6.534;2023-04-10T00:10:49;36.03;;;20.15;;
53801;SDS011;39709;53.334;6.534;2023-04-10T00:13:15;40.90;;;21.55;;
53801;SDS011;39709;53.334;6.534;2023-04-10T00:15:41;39.55;;;21.50;;
53801;SDS011;39709;53.334;6.534;2023-04-10T00:18:07;42.47;;;22.07;;
53801;SDS011;39709;53.334;6.534;2023-04-10T00:20:33;40.60;;;21.80;;
53801;SDS011;39709;53.334;6.534;2023-04-10T00:22:59;39.37;;;20.33;;
53801;SDS011;39709;53.334;6.534;2023-04-10T00:25:24;38.17;;;21.13;;
53801;SDS011;39709;53.334;6.534;2023-04-10T00:27:51;39.87;;;21.63;;
53801;SDS011;39709;53.334;6.534;2023-04-10T00:30:17;40.60;;;21.67;;
53801;SDS011;39709;53.334;6.534;2023-04-10T00:32:43;42.80;;;21.77;;
53801;SDS011;39709;53.334;6.534;2023-04-10T00:35:09;40.28;;;22.05;;
53801;SDS011;39709;53.334;6.534;2023-04-10T00:37:35;41.43;;;22.67;;
53801;SDS011;39709;53.334;6.534;2023-04-10T00:40:01;42.65;;;22.75;;
53801;SDS011;39709;53.334;6.534;2023-04-10T00:42:28;40.72;;;22.67;;
53801;SDS011;39709;53.334;6.534;2023-04-10T00:44:53;40.97;;;24.57;;
53801;SDS011;39709;53.334;6.534;2023-04-10T00:47:19;41.08;;;22.15;;
53801;SDS011;39709;53.334;6.534;2023-04-10T00:49:45;41.92;;;22.92;;
53801;SDS011;39709;53.334;6.534;2023-04-10T00:52:11;39.67;;;21.37;;
53801;SDS011;39709;53.334;6.534;2023-04-10T00:54:37;39.58;;;22.60;;
53801;SDS011;39709;53.334;6.534;2023-04-10T00:57:03;40.10;;;22.65;;
53801;SDS011;39709;53.334;6.534;2023-04-10T00:59:29;42.77;;;23.00;;
53801;SDS011;39709;53.334;6.534;2023-04-10T01:01:55;42.10;;;23.73;;
53801;SDS011;39709;53.334;6.534;2023-04-10T01:04:21;43.30;;;23.08;;
53801;SDS011;39709;53.334;6.534;2023-04-10T01:06:57;42.75;;;23.08;;
53801;SDS011;39709;53.334;6.534;2023-04-10T01:11:52;39.78;;;23.98;;
53801;SDS011;39709;53.334;6.534;2023-04-10T01:14:30;44.75;;;24.25;;
53801;SDS011;39709;53.334;6.534;2023-04-10T01:20:22;46.20;;;25.05;;
53801;SDS011;39709;53.334;6.534;2023-04-10T01:26:04;46.33;;;24.42;;
53801;SDS011;39709;53.334;6.534;2023-04-10T01:31:29;45.10;;;25.80;;
53801;SDS011;39709;53.334;6.534;2023-04-10T01:34:26;45.80;;;25.90;;
53801;SDS011;39709;53.334;6.534;2023-04-10T01:37:01;46.85;;;25.67;;
53801;SDS011;39709;53.334;6.534;2023-04-10T01:39:30;46.65;;;25.67;;
53801;SDS011;39709;53.334;6.534;2023-04-10T01:42:00;45.80;;;26.23;;
53801;SDS011;39709;53.334;6.534;2023-04-10T01:44:29;46.50;;;25.87;;
53801;SDS011;39709;53.334;6.534;2023-04-10T01:46:56;50.35;;;28.52;;
53801;SDS011;39709;53.334;6.534;2023-04-10T01:49:24;48.90;;;26.88;;
53801;SDS011;39709;53.334;6.534;2023-04-10T01:51:51;50.10;;;26.60;;
53801;SDS011;39709;53.334;6.534;2023-04-10T01:54:22;46.30;;;27.08;;
53801;SDS011;39709;53.334;6.534;2023-04-10T01:56:51;48.27;;;26.77;;
53801;SDS011;39709;53.334;6.534;2023-04-10T01:59:17;49.83;;;26.65;;
53801;SDS011;39709;53.334;6.534;2023-04-10T02:01:43;49.55;;;27.63;;
53801;SDS011;39709;53.334;6.534;2023-04-10T02:04:09;54.88;;;28.92;;
53801;SDS011;39709;53.334;6.534;2023-04-10T02:09:13;52.28;;;29.30;;
53801;SDS011;39709;53.334;6.534;2023-04-10T02:14:24;52.15;;;29.88;;
53801;SDS011;39709;53.334;6.534;2023-04-10T02:16:54;55.00;;;30.10;;
53801;SDS011;39709;53.334;6.534;2023-04-10T02:19:24;49.15;;;29.98;;
53801;SDS011;39709;53.334;6.534;2023-04-10T02:21:51;54.65;;;30.67;;
53801;SDS011;39709;53.334;6.534;2023-04-10T02:24:18;53.25;;;30.23;;
53801;SDS011;39709;53.334;6.534;2023-04-10T02:26:45;54.40;;;30.08;;
53801;SDS011;39709;53.334;6.534;2023-04-10T02:29:12;54.13;;;29.70;;
53801;SDS011;39709;53.334;6.534;2023-04-10T02:31:38;54.40;;;30.20;;
53801;SDS011;39709;53.334;6.534;2023-04-10T02:34:05;52.05;;;29.00;;
53801;SDS011;39709;53.334;6.534;2023-04-10T02:36:31;54.05;;;30.23;;
53801;SDS011;39709;53.334;6.534;2023-04-10T02:38:57;55.05;;;31.15;;
53801;SDS011;39709;53.334;6.534;2023-04-10T02:41:23;56.17;;;33.03;;
53801;SDS011;39709;53.334;6.534;2023-04-10T02:43:48;55.15;;;31.58;;
53801;SDS011;39709;53.334;6.534;2023-04-10T02:46:14;56.23;;;31.53;;
53801;SDS011;39709;53.334;6.534;2023-04-10T02:48:40;54.83;;;31.67;;
53801;SDS011;39709;53.334;6.534;2023-04-10T02:51:05;55.90;;;31.85;;
53801;SDS011;39709;53.334;6.534;2023-04-10T02:53:31;56.53;;;31.42;;
53801;SDS011;39709;53.334;6.534;2023-04-10T02:55:57;52.93;;;30.67;;
53801;SDS011;39709;53.334;6.534;2023-04-10T02:58:23;55.90;;;30.95;;
53801;SDS011;39709;53.334;6.534;2023-04-10T03:00:49;57.67;;;31.20;;
53801;SDS011;39709;53.334;6.534;2023-04-10T03:03:17;56.97;;;31.73;;
53801;SDS011;39709;53.334;6.534;2023-04-10T03:05:43;54.78;;;30.63;;
53801;SDS011;39709;53.334;6.534;2023-04-10T03:08:14;55.28;;;30.77;;
53801;SDS011;39709;53.334;6.534;2023-04-10T03:10:44;55.15;;;31.30;;
53801;SDS011;39709;53.334;6.534;2023-04-10T03:13:12;55.33;;;31.90;;
53801;SDS011;39709;53.334;6.534;2023-04-10T03:15:38;52.77;;;30.03;;
53801;SDS011;39709;53.334;6.534;2023-04-10T03:18:04;53.58;;;31.15;;
53801;SDS011;39709;53.334;6.534;2023-04-10T03:20:30;55.28;;;29.17;;
53801;SDS011;39709;53.334;6.534;2023-04-10T03:22:57;55.53;;;31.13;;
53801;SDS011;39709;53.334;6.534;2023-04-10T03:25:24;55.15;;;30.90;;
53801;SDS011;39709;53.334;6.534;2023-04-10T03:27:49;51.03;;;29.48;;
53801;SDS011;39709;53.334;6.534;2023-04-10T03:30:15;57.50;;;31.30;;
53801;SDS011;39709;53.334;6.534;2023-04-10T03:32:41;56.30;;;30.27;;
53801;SDS011;39709;53.334;6.534;2023-04-10T03:35:07;56.28;;;30.33;;
53801;SDS011;39709;53.334;6.534;2023-04-10T03:37:34;50.83;;;29.38;;
53801;SDS011;39709;53.334;6.534;2023-04-10T03:40:00;50.57;;;28.73;;
53801;SDS011;39709;53.334;6.534;2023-04-10T03:42:29;49.95;;;28.73;;
53801;SDS011;39709;53.334;6.534;2023-04-10T03:44:55;52.58;;;30.52;;
53801;SDS011;39709;53.334;6.534;2023-04-10T03:47:21;51.27;;;29.13;;
53801;SDS011;39709;53.334;6.534;2023-04-10T03:49:46;54.83;;;30.07;;
53801;SDS011;39709;53.334;6.534;2023-04-10T03:52:12;50.45;;;28.50;;
53801;SDS011;39709;53.334;6.534;2023-04-10T03:54:38;51.93;;;29.87;;
53801;SDS011;39709;53.334;6.534;2023-04-10T03:57:03;50.05;;;29.73;;
53801;SDS011;39709;53.334;6.534;2023-04-10T03:59:29;48.63;;;28.17;;
53801;SDS011;39709;53.334;6.534;2023-04-10T04:01:55;52.97;;;29.33;;
53801;SDS011;39709;53.334;6.534;2023-04-10T04:04:20;50.93;;;28.80;;
53801;SDS011;39709;53.334;6.534;2023-04-10T04:06:46;51.15;;;28.00;;
53801;SDS011;39709;53.334;6.534;2023-04-10T04:09:12;52.60;;;29.07;;
53801;SDS011;39709;53.334;6.534;2023-04-10T04:11:38;49.30;;;28.67;;
53801;SDS011;39709;53.334;6.534;2023-04-10T04:14:04;52.80;;;29.10;;
53801;SDS011;39709;53.334;6.534;2023-04-10T04:16:30;52.73;;;28.43;;
53801;SDS011;39709;53.334;6.534;2023-04-10T04:18:55;52.30;;;28.25;;
53801;SDS011;39709;53.334;6.534;2023-04-10T04:21:21;49.83;;;27.83;;
53801;SDS011;39709;53.334;6.534;2023-04-10T04:23:47;52.00;;;27.48;;
53801;SDS011;39709;53.334;6.534;2023-04-10T04:26:12;53.13;;;28.67;;
53801;SDS011;39709;53.334;6.534;2023-04-10T04:28:38;51.60;;;27.45;;
53801;SDS011;39709;53.334;6.534;2023-04-10T04:31:04;53.13;;;29.37;;
53801;SDS011;39709;53.334;6.534;2023-04-10T04:33:30;49.90;;;28.77;;
53801;SDS011;39709;53.334;6.534;2023-04-10T04:35:55;55.60;;;28.03;;
53801;SDS011;39709;53.334;6.534;2023-04-10T04:38:21;52.90;;;28.25;;
53801;SDS011;39709;53.334;6.534;2023-04-10T04:40:47;51.83;;;28.93;;
53801;SDS011;39709;53.334;6.534;2023-04-10T04:43:13;50.80;;;28.50;;
53801;SDS011;39709;53.334;6.534;2023-04-10T04:45:38;57.20;;;29.87;;
53801;SDS011;39709;53.334;6.534;2023-04-10T04:48:04;54.15;;;29.92;;
53801;SDS011;39709;53.334;6.534;2023-04-10T04:50:30;55.97;;;29.75;;
53801;SDS011;39709;53.334;6.534;2023-04-10T04:52:56;54.73;;;29.03;;
53801;SDS011;39709;53.334;6.534;2023-04-10T04:55:21;51.13;;;29.95;;
53801;SDS011;39709;53.334;6.534;2023-04-10T04:57:47;55.57;;;30.90;;
53801;SDS011;39709;53.334;6.534;2023-04-10T05:00:13;57.77;;;31.73;;
53801;SDS011;39709;53.334;6.534;2023-04-10T05:02:39;53.03;;;30.25;;
53801;SDS011;39709;53.334;6.534;2023-04-10T05:05:04;52.97;;;30.77;;
53801;SDS011;39709;53.334;6.534;2023-04-10T05:07:30;60.70;;;33.07;;
53801;SDS011;39709;53.334;6.534;2023-04-10T05:09:57;57.33;;;31.55;;
53801;SDS011;39709;53.334;6.534;2023-04-10T05:12:22;58.33;;;32.30;;
53801;SDS011;39709;53.334;6.534;2023-04-10T05:14:48;61.50;;;33.33;;
53801;SDS011;39709;53.334;6.534;2023-04-10T05:17:13;54.33;;;31.80;;
53801;SDS011;39709;53.334;6.534;2023-04-10T05:19:40;58.40;;;33.00;;
53801;SDS011;39709;53.334;6.534;2023-04-10T05:22:06;59.47;;;34.28;;
53801;SDS011;39709;53.334;6.534;2023-04-10T05:24:32;54.03;;;32.00;;
53801;SDS011;39709;53.334;6.534;2023-04-10T05:26:58;62.95;;;33.13;;
53801;SDS011;39709;53.334;6.534;2023-04-10T05:29:23;64.20;;;32.77;;
53801;SDS011;39709;53.334;6.534;2023-04-10T05:31:49;54.38;;;30.42;;
53801;SDS011;39709;53.334;6.534;2023-04-10T05:34:15;64.93;;;33.13;;
53801;SDS011;39709;53.334;6.534;2023-04-10T05:36:41;61.60;;;33.47;;
53801;SDS011;39709;53.334;6.534;2023-04-10T05:39:07;63.30;;;35.08;;
53801;SDS011;39709;53.334;6.534;2023-04-10T05:41:33;63.43;;;34.03;;
53801;SDS011;39709;53.334;6.534;2023-04-10T05:43:58;58.60;;;32.75;;
53801;SDS011;39709;53.334;6.534;2023-04-10T05:46:24;63.17;;;34.97;;
53801;SDS011;39709;53.334;6.534;2023-04-10T05:48:50;61.78;;;34.63;;
53801;SDS011;39709;53.334;6.534;2023-04-10T05:51:15;62.33;;;36.30;;
53801;SDS011;39709;53.334;6.534;2023-04-10T05:53:41;63.40;;;34.80;;
53801;SDS011;39709;53.334;6.534;2023-04-10T05:56:07;60.97;;;34.77;;
53801;SDS011;39709;53.334;6.534;2023-04-10T05:58:32;62.05;;;34.78;;
53801;SDS011;39709;53.334;6.534;2023-04-10T06:00:58;62.07;;;34.10;;
53801;SDS011;39709;53.334;6.534;2023-04-10T06:03:24;64.03;;;35.65;;
53801;SDS011;39709;53.334;6.534;2023-04-10T06:05:54;60.47;;;33.90;;
53801;SDS011;39709;53.334;6.534;2023-04-10T06:08:20;62.03;;;34.38;;
53801;SDS011;39709;53.334;6.534;2023-04-10T06:10:47;61.88;;;35.65;;
53801;SDS011;39709;53.334;6.534;2023-04-10T06:13:12;61.70;;;34.60;;
53801;SDS011;39709;53.334;6.534;2023-04-10T06:15:41;61.67;;;34.97;;
53801;SDS011;39709;53.334;6.534;2023-04-10T06:18:07;62.05;;;34.38;;
53801;SDS011;39709;53.334;6.534;2023-04-10T06:20:33;60.20;;;34.05;;
53801;SDS011;39709;53.334;6.534;2023-04-10T06:22:59;60.60;;;31.53;;
53801;SDS011;39709;53.334;6.534;2023-04-10T06:25:24;61.10;;;32.95;;
53801;SDS011;39709;53.334;6.534;2023-04-10T06:27:50;58.80;;;33.50;;
53801;SDS011;39709;53.334;6.534;2023-04-10T06:30:16;59.03;;;31.97;;
53801;SDS011;39709;53.334;6.534;2023-04-10T06:32:42;59.90;;;32.65;;
53801;SDS011;39709;53.334;6.534;2023-04-10T06:35:07;59.67;;;30.93;;
53801;SDS011;39709;53.334;6.534;2023-04-10T06:37:33;50.42;;;27.83;;
53801;SDS011;39709;53.334;6.534;2023-04-10T06:40:03;54.90;;;30.63;;
53801;SDS011;39709;53.334;6.534;2023-04-10T06:42:30;55.47;;;30.42;;
53801;SDS011;39709;53.334;6.534;2023-04-10T06:44:56;54.08;;;30.88;;
53801;SDS011;39709;53.334;6.534;2023-04-10T06:47:21;54.93;;;29.93;;
53801;SDS011;39709;53.334;6.534;2023-04-10T06:49:47;54.90;;;31.25;;
53801;SDS011;39709;53.334;6.534;2023-04-10T06:52:13;55.53;;;30.70;;
53801;SDS011;39709;53.334;6.534;2023-04-10T06:54:39;53.53;;;30.55;;
53801;SDS011;39709;53.334;6.534;2023-04-10T06:57:05;54.50;;;29.07;;
53801;SDS011;39709;53.334;6.534;2023-04-10T06:59:31;47.65;;;26.42;;
53801;SDS011;39709;53.334;6.534;2023-04-10T07:01:58;48.97;;;28.33;;
53801;SDS011;39709;53.334;6.534;2023-04-10T07:04:24;49.97;;;28.40;;
53801;SDS011;39709;53.334;6.534;2023-04-10T07:06:50;50.53;;;28.07;;
53801;SDS011;39709;53.334;6.534;2023-04-10T07:09:16;54.92;;;30.25;;
53801;SDS011;39709;53.334;6.534;2023-04-10T07:11:41;55.47;;;31.07;;
53801;SDS011;39709;53.334;6.534;2023-04-10T07:14:07;51.70;;;28.63;;
53801;SDS011;39709;53.334;6.534;2023-04-10T07:16:33;50.87;;;28.87;;
53801;SDS011;39709;53.334;6.534;2023-04-10T07:18:58;52.45;;;30.27;;
53801;SDS011;39709;53.334;6.534;2023-04-10T07:21:24;51.50;;;29.83;;
53801;SDS011;39709;53.334;6.534;2023-04-10T07:23:51;52.08;;;29.50;;
53801;SDS011;39709;53.334;6.534;2023-04-10T07:26:17;50.55;;;26.35;;
53801;SDS011;39709;53.334;6.534;2023-04-10T07:28:43;45.97;;;28.17;;
53801;SDS011;39709;53.334;6.534;2023-04-10T07:31:09;47.45;;;28.63;;
53801;SDS011;39709;53.334;6.534;2023-04-10T07:33:36;48.35;;;28.98;;
53801;SDS011;39709;53.334;6.534;2023-04-10T07:36:04;48.73;;;29.40;;
53801;SDS011;39709;53.334;6.534;2023-04-10T07:38:31;45.33;;;25.65;;
53801;SDS011;39709;53.334;6.534;2023-04-10T07:40:57;42.30;;;24.98;;
53801;SDS011;39709;53.334;6.534;2023-04-10T07:43:23;52.08;;;30.55;;
53801;SDS011;39709;53.334;6.534;2023-04-10T07:45:49;53.70;;;30.38;;
53801;SDS011;39709;53.334;6.534;2023-04-10T07:48:15;51.63;;;31.33;;
53801;SDS011;39709;53.334;6.534;2023-04-10T07:50:40;36.45;;;20.08;;
53801;SDS011;39709;53.334;6.534;2023-04-10T07:53:06;49.77;;;27.23;;
53801;SDS011;39709;53.334;6.534;2023-04-10T07:55:41;35.78;;;18.92;;
53801;SDS011;39709;53.334;6.534;2023-04-10T07:58:08;34.38;;;19.75;;
53801;SDS011;39709;53.334;6.534;2023-04-10T08:00:34;19.85;;;10.27;;
53801;SDS011;39709;53.334;6.534;2023-04-10T08:03:00;44.27;;;23.30;;
53801;SDS011;39709;53.334;6.534;2023-04-10T08:05:26;25.08;;;12.50;;
53801;SDS011;39709;53.334;6.534;2023-04-10T08:07:52;27.92;;;14.35;;
53801;SDS011;39709;53.334;6.534;2023-04-10T08:10:18;22.70;;;12.33;;
53801;SDS011;39709;53.334;6.534;2023-04-10T08:12:43;45.15;;;24.52;;
53801;SDS011;39709;53.334;6.534;2023-04-10T08:15:09;39.90;;;20.63;;
53801;SDS011;39709;53.334;6.534;2023-04-10T08:17:35;44.50;;;23.15;;
53801;SDS011;39709;53.334;6.534;2023-04-10T08:20:01;34.30;;;19.37;;
53801;SDS011;39709;53.334;6.534;2023-04-10T08:22:27;23.80;;;12.52;;
53801;SDS011;39709;53.334;6.534;2023-04-10T08:24:53;40.42;;;22.98;;
53801;SDS011;39709;53.334;6.534;2023-04-10T08:27:18;31.43;;;18.03;;
53801;SDS011;39709;53.334;6.534;2023-04-10T08:29:44;36.50;;;19.33;;
53801;SDS011;39709;53.334;6.534;2023-04-10T08:32:10;35.87;;;18.70;;
53801;SDS011;39709;53.334;6.534;2023-04-10T08:34:36;33.58;;;17.27;;
53801;SDS011;39709;53.334;6.534;2023-04-10T08:37:05;26.77;;;14.70;;
53801;SDS011;39709;53.334;6.534;2023-04-10T08:39:35;34.47;;;19.25;;
53801;SDS011;39709;53.334;6.534;2023-04-10T08:42:01;38.30;;;20.98;;
53801;SDS011;39709;53.334;6.534;2023-04-10T08:44:27;26.85;;;14.25;;
53801;SDS011;39709;53.334;6.534;2023-04-10T08:46:53;12.77;;;6.87;;
53801;SDS011;39709;53.334;6.534;2023-04-10T08:52:23;14.32;;;6.93;;
53801;SDS011;39709;53.334;6.534;2023-04-10T08:54:50;29.20;;;15.18;;
53801;SDS011;39709;53.334;6.534;2023-04-10T08:57:19;16.93;;;8.80;;
53801;SDS011;39709;53.334;6.534;2023-04-10T08:59:46;20.98;;;9.73;;
53801;SDS011;39709;53.334;6.534;2023-04-10T09:02:13;24.80;;;12.65;;
53801;SDS011;39709;53.334;6.534;2023-04-10T09:04:38;22.85;;;11.48;;
53801;SDS011;39709;53.334;6.534;2023-04-10T09:07:06;25.67;;;14.17;;
53801;SDS011;39709;53.334;6.534;2023-04-10T09:09:31;25.58;;;13.00;;
53801;SDS011;39709;53.334;6.534;2023-04-10T09:11:58;27.83;;;13.98;;
53801;SDS011;39709;53.334;6.534;2023-04-10T09:14:29;23.40;;;11.68;;
53801;SDS011;39709;53.334;6.534;2023-04-10T09:19:43;22.03;;;11.73;;
53801;SDS011;39709;53.334;6.534;2023-04-10T09:22:10;17.33;;;8.00;;
53801;SDS011;39709;53.334;6.534;2023-04-10T09:24:37;23.58;;;12.13;;
53801;SDS011;39709;53.334;6.534;2023-04-10T09:27:04;28.60;;;15.10;;
53801;SDS011;39709;53.334;6.534;2023-04-10T09:29:46;20.00;;;10.52;;
53801;SDS011;39709;53.334;6.534;2023-04-10T09:35:01;26.70;;;13.70;;
53801;SDS011;39709;53.334;6.534;2023-04-10T09:37:31;18.67;;;9.63;;
53801;SDS011;39709;53.334;6.534;2023-04-10T09:39:57;22.77;;;12.07;;
53801;SDS011;39709;53.334;6.534;2023-04-10T09:42:30;25.43;;;14.40;;
53801;SDS011;39709;53.334;6.534;2023-04-10T09:44:57;11.38;;;6.05;;
53801;SDS011;39709;53.334;6.534;2023-04-10T09:47:23;11.63;;;5.68;;
53801;SDS011;39709;53.334;6.534;2023-04-10T09:49:50;18.75;;;8.73;;
53801;SDS011;39709;53.334;6.534;2023-04-10T09:52:18;16.27;;;7.38;;
53801;SDS011;39709;53.334;6.534;2023-04-10T09:54:45;21.67;;;10.35;;
53801;SDS011;39709;53.334;6.534;2023-04-10T09:57:18;21.98;;;11.10;;
53801;SDS011;39709;53.334;6.534;2023-04-10T09:59:47;20.48;;;10.15;;
53801;SDS011;39709;53.334;6.534;2023-04-10T10:02:16;12.90;;;6.80;;
53801;SDS011;39709;53.334;6.534;2023-04-10T10:04:46;20.88;;;11.57;;
53801;SDS011;39709;53.334;6.534;2023-04-10T10:07:13;21.27;;;11.35;;
53801;SDS011;39709;53.334;6.534;2023-04-10T10:09:41;17.42;;;8.85;;
53801;SDS011;39709;53.334;6.534;2023-04-10T10:12:08;23.40;;;12.38;;
53801;SDS011;39709;53.334;6.534;2023-04-10T10:14:43;18.43;;;9.97;;
53801;SDS011;39709;53.334;6.534;2023-04-10T10:17:15;13.80;;;7.18;;
53801;SDS011;39709;53.334;6.534;2023-04-10T10:19:52;17.15;;;8.20;;
53801;SDS011;39709;53.334;6.534;2023-04-10T10:22:31;20.30;;;10.25;;
53801;SDS011;39709;53.334;6.534;2023-04-10T10:24:59;18.73;;;9.90;;
53801;SDS011;39709;53.334;6.534;2023-04-10T10:27:26;14.43;;;6.40;;
53801;SDS011;39709;53.334;6.534;2023-04-10T10:29:54;15.32;;;7.28;;
53801;SDS011;39709;53.334;6.534;2023-04-10T10:32:23;14.18;;;7.38;;
53801;SDS011;39709;53.334;6.534;2023-04-10T10:34:51;16.65;;;8.68;;
53801;SDS011;39709;53.334;6.534;2023-04-10T10:37:17;15.10;;;6.30;;
53801;SDS011;39709;53.334;6.534;2023-04-10T10:39:56;11.67;;;5.20;;
53801;SDS011;39709;53.334;6.534;2023-04-10T10:42:41;12.98;;;5.97;;
53801;SDS011;39709;53.334;6.534;2023-04-10T10:45:16;16.35;;;6.65;;
53801;SDS011;39709;53.334;6.534;2023-04-10T10:47:52;13.82;;;7.47;;
53801;SDS011;39709;53.334;6.534;2023-04-10T10:50:18;13.93;;;7.03;;
53801;SDS011;39709;53.334;6.534;2023-04-10T10:52:51;14.00;;;7.43;;
53801;SDS011;39709;53.334;6.534;2023-04-10T10:57:47;17.27;;;9.77;;
53801;SDS011;39709;53.334;6.534;2023-04-10T11:00:14;16.23;;;9.00;;
53801;SDS011;39709;53.334;6.534;2023-04-10T11:02:40;16.20;;;7.20;;
53801;SDS011;39709;53.334;6.534;2023-04-10T11:05:06;15.07;;;7.33;;
53801;SDS011;39709;53.334;6.534;2023-04-10T11:13:23;13.88;;;7.30;;
53801;SDS011;39709;53.334;6.534;2023-04-10T11:15:53;14.70;;;6.50;;
53801;SDS011;39709;53.334;6.534;2023-04-10T11:19:07;14.15;;;7.18;;
53801;SDS011;39709;53.334;6.534;2023-04-10T11:23:36;12.07;;;5.80;;
53801;SDS011;39709;53.334;6.534;2023-04-10T11:32:00;12.93;;;6.65;;
53801;SDS011;39709;53.334;6.534;2023-04-10T11:34:28;11.52;;;6.82;;
53801;SDS011;39709;53.334;6.534;2023-04-10T11:36:55;12.43;;;5.97;;
53801;SDS011;39709;53.334;6.534;2023-04-10T11:39:21;11.38;;;6.07;;
53801;SDS011;39709;53.334;6.534;2023-04-10T11:41:51;13.40;;;8.40;;
53801;SDS011;39709;53.334;6.534;2023-04-10T11:44:18;10.48;;;5.28;;
53801;SDS011;39709;53.334;6.534;2023-04-10T11:46:50;13.27;;;5.93;;
53801;SDS011;39709;53.334;6.534;2023-04-10T11:49:23;10.90;;;5.80;;
53801;SDS011;39709;53.334;6.534;2023-04-10T11:51:50;12.23;;;5.37;;
53801;SDS011;39709;53.334;6.534;2023-04-10T11:57:05;12.15;;;5.90;;
53801;SDS011;39709;53.334;6.534;2023-04-10T11:59:31;10.95;;;5.93;;
53801;SDS011;39709;53.334;6.534;2023-04-10T12:02:10;12.23;;;5.82;;
53801;SDS011;39709;53.334;6.534;2023-04-10T12:04:40;10.07;;;5.47;;
53801;SDS011;39709;53.334;6.534;2023-04-10T12:07:07;10.48;;;5.05;;
53801;SDS011;39709;53.334;6.534;2023-04-10T12:09:33;11.95;;;5.60;;
53801;SDS011;39709;53.334;6.534;2023-04-10T12:12:03;8.10;;;3.95;;
53801;SDS011;39709;53.334;6.534;2023-04-10T12:14:33;9.13;;;4.68;;
53801;SDS011;39709;53.334;6.534;2023-04-10T12:17:02;7.77;;;3.87;;
53801;SDS011;39709;53.334;6.534;2023-04-10T12:19:29;11.85;;;4.93;;
53801;SDS011;39709;53.334;6.534;2023-04-10T12:21:56;7.80;;;3.38;;
53801;SDS011;39709;53.334;6.534;2023-04-10T12:27:24;10.65;;;4.97;;
53801;SDS011;39709;53.334;6.534;2023-04-10T12:29:51;8.50;;;4.73;;
53801;SDS011;39709;53.334;6.534;2023-04-10T12:32:18;9.73;;;4.65;;
53801;SDS011;39709;53.334;6.534;2023-04-10T12:37:25;10.80;;;4.57;;
53801;SDS011;39709;53.334;6.534;2023-04-10T12:40:11;8.60;;;4.05;;
53801;SDS011;39709;53.334;6.534;2023-04-10T12:42:40;11.53;;;4.50;;
53801;SDS011;39709;53.334;6.534;2023-04-10T12:45:07;12.02;;;6.40;;
53801;SDS011;39709;53.334;6.534;2023-04-10T12:47:47;11.00;;;7.00;;
53801;SDS011;39709;53.334;6.534;2023-04-10T12:50:16;8.18;;;4.13;;
53801;SDS011;39709;53.334;6.534;2023-04-10T12:52:44;12.35;;;4.50;;
53801;SDS011;39709;53.334;6.534;2023-04-10T12:55:14;9.23;;;3.90;;
53801;SDS011;39709;53.334;6.534;2023-04-10T12:57:42;9.82;;;5.43;;
53801;SDS011;39709;53.334;6.534;2023-04-10T13:00:11;9.10;;;4.82;;
53801;SDS011;39709;53.334;6.534;2023-04-10T13:02:38;10.75;;;5.43;;
53801;SDS011;39709;53.334;6.534;2023-04-10T13:05:05;8.02;;;4.05;;
53801;SDS011;39709;53.334;6.534;2023-04-10T13:07:32;7.83;;;3.53;;
53801;SDS011;39709;53.334;6.534;2023-04-10T13:09:58;11.25;;;6.47;;
53801;SDS011;39709;53.334;6.534;2023-04-10T13:12:24;11.13;;;4.90;;
53801;SDS011;39709;53.334;6.534;2023-04-10T13:14:51;9.55;;;4.22;;
53801;SDS011;39709;53.334;6.534;2023-04-10T13:17:21;9.55;;;5.03;;
53801;SDS011;39709;53.334;6.534;2023-04-10T13:19:48;7.03;;;3.30;;
53801;SDS011;39709;53.334;6.534;2023-04-10T13:22:14;10.63;;;6.05;;
53801;SDS011;39709;53.334;6.534;2023-04-10T13:24:40;9.75;;;4.45;;
53801;SDS011;39709;53.334;6.534;2023-04-10T13:27:07;8.68;;;3.83;;
53801;SDS011;39709;53.334;6.534;2023-04-10T13:29:33;9.77;;;4.80;;
53801;SDS011;39709;53.334;6.534;2023-04-10T13:32:00;8.90;;;3.55;;
53801;SDS011;39709;53.334;6.534;2023-04-10T13:34:29;10.95;;;5.70;;
53801;SDS011;39709;53.334;6.534;2023-04-10T13:36:58;9.35;;;4.25;;
53801;SDS011;39709;53.334;6.534;2023-04-10T13:39:24;9.27;;;3.85;;
53801;SDS011;39709;53.334;6.534;2023-04-10T13:41:51;9.80;;;4.50;;
53801;SDS011;39709;53.334;6.534;2023-04-10T13:44:16;10.38;;;4.20;;
53801;SDS011;39709;53.334;6.534;2023-04-10T13:46:42;8.63;;;3.87;;
53801;SDS011;39709;53.334;6.534;2023-04-10T13:49:08;7.95;;;3.50;;
53801;SDS011;39709;53.334;6.534;2023-04-10T13:51:33;7.23;;;3.47;;
53801;SDS011;39709;53.334;6.534;2023-04-10T13:53:59;8.55;;;3.88;;
53801;SDS011;39709;53.334;6.534;2023-04-10T13:56:26;6.55;;;3.13;;
53801;SDS011;39709;53.334;6.534;2023-04-10T13:58:54;8.83;;;3.83;;
53801;SDS011;39709;53.334;6.534;2023-04-10T14:01:19;8.23;;;3.50;;
53801;SDS011;39709;53.334;6.534;2023-04-10T14:03:45;8.40;;;3.93;;
53801;SDS011;39709;53.334;6.534;2023-04-10T14:06:11;7.30;;;3.47;;
53801;SDS011;39709;53.334;6.534;2023-04-10T14:08:38;10.27;;;5.32;;
53801;SDS011;39709;53.334;6.534;2023-04-10T14:11:04;8.47;;;3.90;;
53801;SDS011;39709;53.334;6.534;2023-04-10T14:13:30;9.93;;;4.20;;
53801;SDS011;39709;53.334;6.534;2023-04-10T14:15:55;8.85;;;3.33;;
53801;SDS011;39709;53.334;6.534;2023-04-10T14:18:21;8.40;;;4.10;;
53801;SDS011;39709;53.334;6.534;2023-04-10T14:20:47;7.25;;;3.70;;
53801;SDS011;39709;53.334;6.534;2023-04-10T14:23:12;7.70;;;3.67;;
53801;SDS011;39709;53.334;6.534;2023-04-10T14:25:45;8.43;;;3.70;;
53801;SDS011;39709;53.334;6.534;2023-04-10T14:28:13;8.20;;;3.55;;
53801;SDS011;39709;53.334;6.534;2023-04-10T14:30:45;9.55;;;4.72;;
53801;SDS011;39709;53.334;6.534;2023-04-10T14:33:12;7.93;;;3.90;;
53801;SDS011;39709;53.334;6.534;2023-04-10T14:35:38;6.97;;;3.38;;
53801;SDS011;39709;53.334;6.534;2023-04-10T14:38:04;7.38;;;3.30;;
53801;SDS011;39709;53.334;6.534;2023-04-10T14:40:30;7.63;;;3.47;;
53801;SDS011;39709;53.334;6.534;2023-04-10T14:42:56;7.20;;;3.63;;
53801;SDS011;39709;53.334;6.534;2023-04-10T14:45:21;8.03;;;3.70;;
53801;SDS011;39709;53.334;6.534;2023-04-10T14:47:47;5.22;;;2.10;;
53801;SDS011;39709;53.334;6.534;2023-04-10T14:50:13;8.30;;;3.67;;
53801;SDS011;39709;53.334;6.534;2023-04-10T14:52:38;7.57;;;2.83;;
53801;SDS011;39709;53.334;6.534;2023-04-10T14:55:04;8.57;;;4.00;;
53801;SDS011;39709;53.334;6.534;2023-04-10T14:57:30;7.03;;;3.53;;
53801;SDS011;39709;53.334;6.534;2023-04-10T14:59:56;7.40;;;3.17;;
53801;SDS011;39709;53.334;6.534;2023-04-10T15:02:21;7.22;;;3.22;;
53801;SDS011;39709;53.334;6.534;2023-04-10T15:04:47;6.90;;;3.43;;
53801;SDS011;39709;53.334;6.534;2023-04-10T15:07:13;6.53;;;3.07;;
53801;SDS011;39709;53.334;6.534;2023-04-10T15:09:38;7.45;;;3.20;;
53801;SDS011;39709;53.334;6.534;2023-04-10T15:12:08;7.37;;;2.90;;
53801;SDS011;39709;53.334;6.534;2023-04-10T15:14:34;7.20;;;2.97;;
53801;SDS011;39709;53.334;6.534;2023-04-10T15:17:00;7.82;;;2.35;;
53801;SDS011;39709;53.334;6.534;2023-04-10T15:19:26;7.90;;;3.17;;